Time;durP1;ratioP1;P1;durP2;ratioP2;P2;SDS_P1;SDS_P2;PMS_P1;PMS_P2;Temp;Humidity;BMP_temperature;BMP_pressure;BME280_temperature;BME280_humidity;BME280_pressure;Samples;Min_cycle;Max_cycle;Signal;HPM_P1;HPM_P2
2022/05/13 00:00:46;;;;;;;12.65;7.10;;;;;;;16.49;82.22;98136.56;5116218;28;20048;-85
2022/05/13 00:03:11;;;;;;;10.30;5.85;;;;;;;16.46;82.40;98127.00;5115852;28;20020;-87
2022/05/13 00:05:37;;;;;;;14.55;8.10;;;;;;;16.38;82.65;98138.09;5118732;28;20076;-83
2022/05/13 00:08:03;;;;;;;17.17;7.45;;;;;;;16.34;83.10;98124.13;5119211;28;20028;-85
2022/05/13 00:10:29;;;;;;;10.63;6.88;;;;;;;16.37;83.15;98130.94;5119208;28;20015;-84
2022/05/13 00:12:54;;;;;;;9.13;6.32;;;;;;;16.34;83.29;98118.59;5119476;28;20032;-84
2022/05/13 00:15:24;;;;;;;12.88;6.68;;;;;;;16.38;82.60;98129.81;5118640;28;20038;-84
2022/05/13 00:17:50;;;;;;;11.20;5.95;;;;;;;16.30;82.81;98111.28;5119307;28;20028;-83
2022/05/13 00:20:16;;;;;;;9.27;6.47;;;;;;;16.34;82.85;98124.13;5118945;28;20012;-86
2022/05/13 00:22:53;;;;;;;15.15;6.72;;;;;;;16.41;83.02;98124.41;5118333;28;20020;-83
2022/05/13 00:25:21;;;;;;;12.70;6.47;;;;;;;16.43;82.72;98121.34;5119592;28;20036;-84
2022/05/13 00:27:47;;;;;;;9.63;6.38;;;;;;;16.49;82.58;98129.09;5119980;28;20021;-84
2022/05/13 00:30:13;;;;;;;10.10;6.30;;;;;;;16.34;83.41;98126.06;5118548;28;20031;-82
2022/05/13 00:32:39;;;;;;;8.65;6.43;;;;;;;16.29;83.78;98120.72;5118731;28;20026;-88
2022/05/13 00:35:06;;;;;;;11.50;6.82;;;;;;;16.26;84.17;98116.66;5119128;28;20020;-85
2022/05/13 00:37:32;;;;;;;12.32;6.82;;;;;;;16.23;84.23;98109.03;5117698;28;20024;-85
2022/05/13 00:39:57;;;;;;;9.23;6.07;;;;;;;16.29;84.48;98126.25;5117707;28;20044;-85
2022/05/13 00:42:24;;;;;;;7.97;6.50;;;;;;;16.30;84.48;98125.09;5116468;28;20016;-88
2022/05/13 00:44:50;;;;;;;8.45;6.22;;;;;;;16.16;84.94;98110.69;5109646;28;20370;-85
2022/05/13 00:47:15;;;;;;;14.32;6.60;;;;;;;16.21;84.34;98127.06;5106021;28;20055;-87
2022/05/13 00:49:42;;;;;;;8.32;6.68;;;;;;;16.18;85.56;98130.47;5117373;28;20016;-84
2022/05/13 00:52:10;;;;;;;12.48;6.45;;;;;;;16.05;86.36;98121.25;5116925;28;20108;-87
2022/05/13 00:54:41;;;;;;;9.50;6.47;;;;;;;15.94;85.93;98125.50;5118194;28;20042;-86
2022/05/13 00:57:06;;;;;;;10.10;6.97;;;;;;;15.85;86.81;98114.44;5118066;28;20099;-88
2022/05/13 00:59:34;;;;;;;8.27;6.43;;;;;;;15.93;86.28;98124.66;5117752;28;20019;-88
2022/05/13 01:02:00;;;;;;;9.77;6.88;;;;;;;15.84;86.40;98109.25;5117828;28;20031;-85
2022/05/13 01:04:27;;;;;;;8.93;6.55;;;;;;;15.88;85.26;98110.25;5117688;28;20024;-88
2022/05/13 01:06:56;;;;;;;11.15;6.50;;;;;;;15.88;84.47;98116.53;5116713;28;20030;-83
2022/05/13 01:09:23;;;;;;;8.93;6.07;;;;;;;15.94;84.64;98123.50;5115514;28;20027;-87
2022/05/13 01:11:52;;;;;;;8.65;6.03;;;;;;;15.88;85.26;98110.25;5115878;28;20065;-87
2022/05/13 01:14:25;;;;;;;8.93;6.47;;;;;;;15.72;85.39;98111.88;5117093;28;20032;-87
2022/05/13 01:19:36;;;;;;;11.35;6.18;;;;;;;15.68;86.17;98128.25;5116391;28;20542;-84
2022/05/13 01:22:15;;;;;;;14.55;9.32;;;;;;;15.55;87.19;98118.19;5114081;28;20087;-83
2022/05/13 01:24:41;;;;;;;18.10;10.13;;;;;;;15.56;87.40;98119.81;5111252;28;20085;-82
2022/05/13 01:27:07;;;;;;;20.20;10.82;;;;;;;15.58;87.47;98117.53;5112731;28;20088;-86
2022/05/13 01:29:32;;;;;;;14.73;9.80;;;;;;;15.52;88.27;98124.34;5112419;28;20052;-85
2022/05/13 01:31:57;;;;;;;17.85;10.70;;;;;;;15.47;88.42;98105.19;5109517;28;20093;-85
2022/05/13 01:34:23;;;;;;;17.95;11.25;;;;;;;15.51;88.57;98118.00;5105210;28;20023;-84
2022/05/13 01:36:48;;;;;;;13.93;8.70;;;;;;;15.46;88.77;98106.31;5113069;28;20005;-83
2022/05/13 01:39:14;;;;;;;13.45;8.27;;;;;;;15.58;88.33;98116.72;5095720;28;20028;-85
2022/05/13 01:41:39;;;;;;;12.73;8.48;;;;;;;15.49;89.05;98123.03;5097752;28;20023;-82
2022/05/13 01:44:05;;;;;;;12.88;9.50;;;;;;;15.35;90.12;98107.72;5111540;28;20124;-85
2022/05/13 01:46:30;;;;;;;11.93;7.60;;;;;;;15.40;nan;98121.38;5107488;28;20040;-82
2022/05/13 01:48:56;;;;;;;12.77;8.48;;;;;;;15.34;91.50;98125.44;5083482;28;20513;-85
2022/05/13 01:51:22;;;;;;;15.80;8.20;;;;;;;15.36;91.65;98117.63;5082147;28;20037;-86
2022/05/13 01:53:48;;;;;;;12.73;8.18;;;;;;;15.19;92.52;98115.66;5093081;28;20049;-81
2022/05/13 01:56:13;;;;;;;15.50;8.38;;;;;;;15.10;92.90;98103.81;5102269;28;20028;-82
2022/05/13 01:58:39;;;;;;;11.95;7.47;;;;;;;15.24;92.08;98106.44;5102179;28;20066;-83
2022/05/13 02:01:08;;;;;;;17.10;7.18;;;;;;;15.28;92.20;98118.44;5100905;28;20463;-84
2022/05/13 02:03:45;;;;;;;11.25;8.70;;;;;;;15.17;93.23;98120.69;5085366;28;20036;-83
2022/05/13 02:06:14;;;;;;;13.27;8.43;;;;;;;15.09;95.12;98123.44;5088364;28;20054;-81
2022/05/13 02:08:40;;;;;;;10.15;7.82;;;;;;;15.02;96.10;98126.66;5094477;28;20119;-82
2022/05/13 02:11:06;;;;;;;13.77;8.23;;;;;;;15.01;96.10;98125.84;5096327;28;20051;-84
2022/05/13 02:13:32;;;;;;;12.73;7.97;;;;;;;14.93;96.55;98112.84;5095049;28;20028;-83
2022/05/13 02:15:58;;;;;;;11.98;8.13;;;;;;;15.01;96.23;98117.56;5092287;28;20032;-83
2022/05/13 02:18:23;;;;;;;12.70;7.45;;;;;;;14.96;96.73;98114.97;5084702;28;20051;-84
2022/05/13 02:20:48;;;;;;;11.68;7.93;;;;;;;14.89;97.50;98114.63;5084944;28;20033;-83
2022/05/13 02:23:17;;;;;;;10.60;7.40;;;;;;;14.93;96.41;98099.09;5083996;28;20029;-82
2022/05/13 02:25:43;;;;;;;15.68;8.13;;;;;;;14.84;96.78;98113.97;5084860;28;20066;-82
2022/05/13 02:28:09;;;;;;;11.85;8.02;;;;;;;14.73;97.68;98115.34;5084673;28;20028;-84
2022/05/13 02:30:34;;;;;;;12.98;8.30;;;;;;;14.43;100.00;98098.56;5086820;28;20028;-84
2022/05/13 02:33:00;;;;;;;14.98;8.70;;;;;;;14.43;100.00;98097.75;5120726;28;20024;-82
2022/05/13 02:35:27;;;;;;;15.57;9.10;;;;;;;14.60;100.00;98108.03;5085641;28;20031;-84
2022/05/13 02:37:53;;;;;;;12.63;8.52;;;;;;;14.53;100.00;98115.94;5101886;28;20016;-80
2022/05/13 02:40:19;;;;;;;12.65;8.90;;;;;;;14.60;100.00;98117.09;5103380;28;20158;-83
2022/05/13 02:42:45;;;;;;;14.63;7.95;;;;;;;14.50;100.00;98098.13;5103305;28;20069;-83
2022/05/13 02:45:11;;;;;;;13.05;8.82;;;;;;;14.26;100.00;98087.44;5106557;28;20028;-84
2022/05/13 02:47:38;;;;;;;12.80;8.05;;;;;;;14.36;100.00;98081.69;5107318;28;20069;-83
2022/05/13 02:50:17;;;;;;;14.23;8.75;;;;;;;14.43;100.00;98098.56;5108936;28;20046;-84
2022/05/13 02:52:43;;;;;;;12.10;8.15;;;;;;;14.43;100.00;98108.78;5106706;28;20062;-83
2022/05/13 02:55:09;;;;;;;16.70;10.02;;;;;;;14.18;100.00;98059.88;5108767;28;20035;-86
2022/05/13 02:57:34;;;;;;;18.50;8.93;;;;;;;14.23;100.00;98098.25;5107288;28;20026;-88
2022/05/13 03:00:01;;;;;;;19.48;8.85;;;;;;;14.15;100.00;98107.28;5105528;28;20028;-84
2022/05/13 03:02:28;;;;;;;15.57;9.50;;;;;;;13.89;100.00;98099.69;5110512;28;20020;-86
2022/05/13 03:04:57;;;;;;;14.07;8.48;;;;;;;13.95;100.00;98125.09;5111421;28;20031;-85
2022/05/13 03:07:22;;;;;;;12.90;9.10;;;;;;;13.49;100.00;98092.41;5108410;28;20020;-84
2022/05/13 03:09:49;;;;;;;15.63;8.85;;;;;;;13.43;100.00;98085.41;5106271;28;20039;-86
2022/05/13 03:12:16;;;;;;;19.13;11.35;;;;;;;13.56;100.00;98098.31;5099678;28;20043;-85
2022/05/13 03:14:42;;;;;;;15.20;9.77;;;;;;;13.68;100.00;98125.22;5088981;28;20083;-84
2022/05/13 03:17:07;;;;;;;19.73;10.13;;;;;;;13.74;100.00;98130.31;5089732;28;20028;-82
2022/05/13 03:19:36;;;;;;;12.30;8.63;;;;;;;13.73;100.00;98134.16;5105641;28;20053;-84
2022/05/13 03:22:02;;;;;;;15.68;9.48;;;;;;;13.66;100.00;98149.44;5104520;28;20027;-85
2022/05/13 03:24:27;;;;;;;13.10;9.55;;;;;;;13.43;100.00;98123.88;5105814;28;20074;-85
2022/05/13 03:26:53;;;;;;;15.77;9.40;;;;;;;13.31;100.00;98116.16;5104803;28;20028;-83
2022/05/13 03:29:20;;;;;;;14.93;9.48;;;;;;;13.44;100.00;98130.19;5086383;28;20471;-83
2022/05/13 03:31:46;;;;;;;17.60;9.18;;;;;;;13.49;100.00;98111.66;5084816;28;20063;-84
2022/05/13 03:34:11;;;;;;;15.13;8.73;;;;;;;13.59;100.00;98124.34;5084904;28;20096;-81
2022/05/13 03:36:37;;;;;;;16.63;9.15;;;;;;;13.75;100.00;98145.66;5102369;28;20047;-85
2022/05/13 03:39:03;;;;;;;13.23;8.80;;;;;;;13.47;100.00;98113.88;5085963;28;20024;-84
2022/05/13 03:41:30;;;;;;;12.75;9.32;;;;;;;13.67;100.00;98146.41;5107848;28;20029;-86
2022/05/13 03:43:55;;;;;;;12.80;8.77;;;;;;;13.48;100.00;98112.78;5094810;28;20048;-85
2022/05/13 03:46:20;;;;;;;15.63;9.18;;;;;;;13.58;100.00;98129.03;5095717;28;20052;-82
2022/05/13 03:48:46;;;;;;;15.43;9.43;;;;;;;13.50;100.00;98140.75;5110468;28;20024;-83
2022/05/13 03:51:11;;;;;;;13.70;9.00;;;;;;;13.58;100.00;98140.03;5108672;28;20032;-82
2022/05/13 03:53:38;;;;;;;16.77;9.30;;;;;;;13.73;100.00;98145.16;5107541;28;20063;-82
2022/05/13 03:56:04;;;;;;;15.05;8.77;;;;;;;13.89;100.00;98143.69;5108190;28;20020;-86
2022/05/13 03:58:30;;;;;;;13.52;7.95;;;;;;;13.89;100.00;98129.94;5106875;28;20489;-87
2022/05/13 04:00:56;;;;;;;11.25;8.52;;;;;;;14.03;100.00;98149.13;5106779;28;20423;-82
2022/05/13 04:03:22;;;;;;;11.55;9.23;;;;;;;14.10;100.00;98152.22;5110177;28;20023;-85
2022/05/13 04:11:16;;;;;;;12.68;9.13;;;;;;;14.34;100.00;98160.19;5099724;28;20023;-83
2022/05/13 04:16:27;;;;;;;13.13;8.23;;;;;;;14.97;98.48;98152.38;5099701;28;20047;-83
2022/05/13 04:18:53;;;;;;;13.52;8.02;;;;;;;15.05;98.33;98152.75;5099607;28;20000;-88
2022/05/13 04:21:28;;;;;;;12.65;8.50;;;;;;;15.08;96.87;98157.63;5099420;28;20080;-85
2022/05/13 04:23:55;;;;;;;;;;;;;;;15.16;96.04;98162.34;5099738;28;20016;-88
2022/05/13 04:26:21;;;;;;;13.35;8.35;;;;;;;15.11;96.15;98163.31;5099131;28;19904;-86
2022/05/13 04:28:48;;;;;;;19.88;8.82;;;;;;;15.22;95.48;98163.84;5099645;28;20040;-87
2022/05/13 04:31:17;;;;;;;13.00;8.65;;;;;;;15.06;95.77;98154.38;5111192;28;20031;-86
2022/05/13 04:33:43;;;;;;;17.58;8.95;;;;;;;15.37;94.00;98152.34;5138917;28;20092;-85
2022/05/13 04:36:10;;;;;;;15.10;8.10;;;;;;;16.08;88.28;98132.44;5138309;28;20016;-84
2022/05/13 04:38:37;;;;;;;13.02;8.00;;;;;;;16.83;82.58;98122.66;5140253;28;20013;-87
2022/05/13 04:43:49;;;;;;;17.50;8.77;;;;;;;17.91;74.79;98135.69;5099577;28;21086;-83
2022/05/13 04:46:19;;;;;;;13.35;8.55;;;;;;;18.12;72.93;98155.84;5119052;28;20023;-86
2022/05/13 04:48:50;;;;;;;10.98;7.07;;;;;;;17.25;75.58;98148.50;5132840;28;20016;-84
2022/05/13 04:51:20;;;;;;;13.48;7.85;;;;;;;16.84;79.81;98190.63;5138498;28;20009;-84
2022/05/13 04:53:50;;;;;;;14.30;8.18;;;;;;;16.32;82.11;98162.28;5139685;28;20004;-85
2022/05/13 04:56:16;;;;;;;11.15;7.45;;;;;;;16.57;82.54;98193.78;5154766;22;20088;-86
2022/05/13 04:58:44;;;;;;;12.85;7.35;;;;;;;16.62;82.37;98193.59;5060372;28;20029;-83
2022/05/13 05:01:10;;;;;;;10.50;7.60;;;;;;;16.66;82.39;98208.41;5046280;28;20033;-80
2022/05/13 05:03:37;;;;;;;16.45;8.45;;;;;;;16.62;82.73;98207.41;5034670;28;20491;-80
2022/05/13 05:06:06;;;;;;;9.82;7.50;;;;;;;17.05;81.08;98205.31;5033287;28;20044;-79
2022/05/13 05:08:31;;;;;;;8.82;7.38;;;;;;;17.35;78.52;98197.06;5031122;28;20036;-80
2022/05/13 05:10:58;;;;;;;18.63;7.35;;;;;;;17.53;77.60;98212.44;5049159;28;20022;-81
2022/05/13 05:13:28;;;;;;;16.75;8.45;;;;;;;18.25;74.72;98220.41;5038495;28;20029;-81
2022/05/13 05:15:55;;;;;;;13.23;8.20;;;;;;;19.07;70.93;98225.00;5035867;28;20033;-80
2022/05/13 05:18:21;;;;;;;18.25;8.88;;;;;;;19.43;68.08;98217.88;5036663;28;20033;-79
2022/05/13 05:20:47;;;;;;;16.33;9.13;;;;;;;18.89;70.14;98217.22;5015724;28;20112;-81
2022/05/13 05:23:18;;;;;;;16.17;8.90;;;;;;;18.53;71.48;98220.66;5032259;28;20251;-78
2022/05/13 05:25:45;;;;;;;12.45;8.35;;;;;;;19.31;68.50;98215.06;5033269;28;20068;-77
2022/05/13 05:28:10;;;;;;;13.60;7.65;;;;;;;19.41;66.76;98231.28;5036110;28;20048;-76
2022/05/13 05:30:37;;;;;;;13.82;9.05;;;;;;;19.18;67.53;98228.13;5032880;28;20596;-75
2022/05/13 05:33:02;;;;;;;18.05;10.48;;;;;;;19.12;67.20;98208.13;5025925;28;20067;-76
2022/05/13 05:35:29;;;;;;;15.75;9.27;;;;;;;18.90;68.84;98230.72;5029941;28;20021;-75
2022/05/13 05:37:55;;;;;;;20.58;10.20;;;;;;;18.73;69.46;98236.47;5031011;28;20053;-77
2022/05/13 05:40:20;;;;;;;18.55;9.50;;;;;;;18.87;70.45;98230.59;5032026;28;20489;-76
2022/05/13 05:42:46;;;;;;;17.30;9.70;;;;;;;19.07;68.60;98238.03;5046791;28;20037;-81
2022/05/13 05:45:16;;;;;;;15.55;8.25;;;;;;;19.15;68.41;98232.38;5052488;28;20010;-78
2022/05/13 05:47:42;;;;;;;13.98;7.50;;;;;;;19.14;69.20;98247.41;5032649;28;20041;-75
2022/05/13 05:50:11;;;;;;;14.50;6.90;;;;;;;19.17;69.00;98249.50;5047232;28;20057;-82
2022/05/13 05:52:37;;;;;;;18.95;7.63;;;;;;;19.03;68.28;98218.50;5038758;28;20072;-75
2022/05/13 05:58:17;;;;;;;13.47;7.07;;;;;;;19.23;68.22;98250.88;5025959;28;20088;-77
2022/05/13 06:00:49;;;;;;;15.75;7.97;;;;;;;19.21;68.80;98244.88;5030870;28;20056;-79
2022/05/13 06:03:15;;;;;;;14.15;7.85;;;;;;;19.45;67.65;98257.97;5032246;28;20038;-79
2022/05/13 06:05:42;;;;;;;13.57;8.70;;;;;;;19.58;67.54;98251.28;5033898;28;20019;-81
2022/05/13 06:08:08;;;;;;;16.70;8.02;;;;;;;19.45;68.37;98244.09;5035691;28;20036;-83
2022/05/13 06:10:35;;;;;;;14.00;7.88;;;;;;;19.41;67.09;98250.72;5040836;28;20017;-82
2022/05/13 06:13:02;;;;;;;16.08;8.07;;;;;;;19.58;65.83;98237.41;5043071;28;20048;-84
2022/05/13 06:15:28;;;;;;;14.52;8.68;;;;;;;19.67;65.69;98246.44;5044721;28;20032;-83
2022/05/13 06:17:55;;;;;;;9.35;6.68;;;;;;;20.02;63.98;98255.06;5044780;28;20108;-85
2022/05/13 06:20:24;;;;;;;11.85;6.30;;;;;;;20.16;63.46;98254.72;5048991;28;20180;-84
2022/05/13 06:22:50;;;;;;;10.25;6.32;;;;;;;20.52;61.57;98243.50;5045557;28;20025;-82
2022/05/13 06:25:17;;;;;;;8.43;5.95;;;;;;;20.87;59.78;98240.91;5047754;28;20045;-85
2022/05/13 06:27:44;;;;;;;9.18;6.78;;;;;;;20.44;60.85;98260.34;5045016;28;20097;-83
2022/05/13 06:30:15;;;;;;;13.60;6.18;;;;;;;20.25;62.28;98250.63;5042103;28;20053;-84
2022/05/13 06:32:41;;;;;;;12.23;8.57;;;;;;;20.32;62.14;98254.81;5047635;28;20033;-83
2022/05/13 06:35:07;;;;;;;10.20;6.80;;;;;;;20.38;61.97;98261.75;5043034;28;20038;-80
2022/05/13 06:37:33;;;;;;;13.80;5.90;;;;;;;20.23;63.00;98266.88;5051362;28;20018;-81
2022/05/13 06:39:59;;;;;;;12.93;6.50;;;;;;;20.07;63.75;98263.19;5035381;28;20028;-82
2022/05/13 06:42:24;;;;;;;13.30;6.80;;;;;;;19.92;64.38;98254.75;5030195;28;20029;-82
2022/05/13 06:44:50;;;;;;;15.20;7.10;;;;;;;20.49;63.03;98263.66;5033694;28;20025;-81
2022/05/13 06:47:15;;;;;;;12.05;6.82;;;;;;;20.44;63.48;98271.47;5033647;28;20040;-82
2022/05/13 06:49:41;;;;;;;12.20;7.53;;;;;;;19.96;64.65;98259.25;5034157;28;20044;-84
2022/05/13 06:52:08;;;;;;;16.98;6.18;;;;;;;20.11;64.33;98272.41;5037346;28;20037;-82
2022/05/13 06:54:35;;;;;;;12.52;7.18;;;;;;;20.09;63.76;98271.97;5028995;28;20218;-83
2022/05/13 06:57:01;;;;;;;13.93;7.22;;;;;;;20.08;64.42;98272.34;5033451;28;20068;-84
2022/05/13 06:59:26;;;;;;;17.30;8.00;;;;;;;20.19;65.20;98274.28;5033549;28;20067;-82
2022/05/13 07:01:52;;;;;;;13.13;7.72;;;;;;;20.09;65.21;98269.19;5048672;28;20452;-81
2022/05/13 07:04:17;;;;;;;11.25;7.93;;;;;;;20.16;65.45;98272.19;5032271;28;20546;-80
2022/05/13 07:06:43;;;;;;;10.88;7.53;;;;;;;20.03;66.18;98253.13;5034156;28;20502;-84
2022/05/13 07:09:08;;;;;;;12.23;7.22;;;;;;;20.59;64.58;98260.41;5034000;28;20094;-84
2022/05/13 07:11:34;;;;;;;10.43;7.20;;;;;;;20.57;63.37;98264.69;5038156;28;20081;-83
2022/05/13 07:14:00;;;;;;;10.00;6.90;;;;;;;20.61;62.94;98266.41;5056484;28;20037;-82
2022/05/13 07:16:26;;;;;;;11.25;6.93;;;;;;;20.64;62.38;98264.91;5037032;28;20086;-78
2022/05/13 07:18:51;;;;;;;9.85;7.40;;;;;;;20.91;62.60;98254.94;5053232;28;20081;-85
2022/05/13 07:21:20;;;;;;;11.55;7.57;;;;;;;21.06;62.68;98260.53;5037352;28;20037;-82
2022/05/13 07:23:45;;;;;;;15.35;7.97;;;;;;;21.30;61.94;98245.69;5036373;28;20304;-83
2022/05/13 07:26:11;;;;;;;9.57;7.18;;;;;;;21.44;61.74;98253.59;5040621;28;20029;-83
2022/05/13 07:28:40;;;;;;;11.50;7.65;;;;;;;21.42;60.83;98245.59;5034825;28;20446;-83
2022/05/13 07:31:09;;;;;;;9.70;7.47;;;;;;;21.62;60.09;98235.34;5029363;28;20584;-81
2022/05/13 07:33:35;;;;;;;10.75;6.63;;;;;;;22.05;58.91;98238.00;5033449;28;20021;-83
2022/05/13 07:36:00;;;;;;;12.30;7.63;;;;;;;22.05;58.62;98238.00;5050959;28;20022;-84
2022/05/13 07:38:29;;;;;;;11.85;7.25;;;;;;;22.12;58.56;98234.56;5040895;28;20029;-84
2022/05/13 07:43:39;;;;;;;8.77;7.45;;;;;;;22.50;56.72;98244.94;5043105;28;20033;-84
2022/05/13 07:46:06;;;;;;;12.38;7.20;;;;;;;22.47;55.70;98234.50;5059458;28;20037;-83
2022/05/13 07:48:32;;;;;;;10.80;6.80;;;;;;;22.25;56.64;98234.06;5039388;28;20033;-80
2022/05/13 07:51:00;;;;;;;13.63;7.75;;;;;;;22.54;55.40;98237.47;5040373;28;20036;-80
2022/05/13 07:53:26;;;;;;;15.30;7.32;;;;;;;22.39;55.79;98239.97;5067964;28;20037;-82
2022/05/13 07:55:51;;;;;;;11.50;7.57;;;;;;;22.56;55.44;98246.25;5038877;28;20049;-82
2022/05/13 07:58:17;;;;;;;10.57;6.60;;;;;;;24.33;50.20;98247.44;5038410;28;20426;-87
2022/05/13 08:00:43;;;;;;;11.55;6.85;;;;;;;25.49;46.49;98251.66;5039595;28;20021;-81
2022/05/13 08:03:13;;;;;;;10.50;6.38;;;;;;;27.79;42.76;98251.97;5040373;28;20541;-86
2022/05/13 08:05:46;;;;;;;10.05;5.78;;;;;;;29.15;38.66;98264.13;5043707;28;20534;-84
2022/05/13 08:08:18;;;;;;;9.32;5.57;;;;;;;30.22;35.72;98248.06;5034613;28;20041;-84
2022/05/13 08:10:50;;;;;;;8.98;6.53;;;;;;;31.64;33.38;98255.56;5036553;28;20029;-84
2022/05/13 08:13:16;;;;;;;10.52;5.22;;;;;;;32.40;31.79;98253.88;5051993;28;20483;-82
2022/05/13 08:15:42;;;;;;;10.55;5.68;;;;;;;31.89;31.98;98257.22;5030595;28;20037;-79
2022/05/13 08:18:08;;;;;;;8.18;5.63;;;;;;;32.16;31.80;98244.63;5030633;28;20037;-79
2022/05/13 08:20:35;;;;;;;9.15;5.90;;;;;;;32.64;31.21;98252.63;5036561;28;20026;-82
2022/05/13 08:23:01;;;;;;;9.32;5.93;;;;;;;32.42;30.63;98239.31;5036445;28;20026;-81
2022/05/13 08:25:27;;;;;;;12.02;5.80;;;;;;;32.53;30.45;98239.88;5030134;28;20140;-74
2022/05/13 08:27:54;;;;;;;8.00;4.90;;;;;;;33.45;29.71;98240.81;5033118;28;20478;-75
2022/05/13 08:30:21;;;;;;;9.93;5.38;;;;;;;34.44;27.99;98253.34;5031879;28;20063;-75
2022/05/13 08:32:46;;;;;;;12.40;5.60;;;;;;;35.05;26.64;98247.56;5040552;28;20033;-73
2022/05/13 08:35:14;;;;;;;12.30;5.22;;;;;;;35.63;25.94;98248.25;5030218;28;20006;-76
2022/05/13 08:37:46;;;;;;;9.23;5.20;;;;;;;35.74;25.75;98245.06;5032123;28;20021;-75
2022/05/13 08:40:37;;;;;;;9.52;5.57;;;;;;;35.03;26.16;98244.34;5030688;28;20022;-75
2022/05/13 08:43:13;;;;;;;6.55;4.82;;;;;;;33.74;27.69;98239.69;5025602;28;20029;-74
2022/05/13 08:45:49;;;;;;;8.05;5.43;;;;;;;32.46;29.63;98218.16;5029460;28;20029;-74
2022/05/13 08:48:17;;;;;;;9.73;5.95;;;;;;;32.00;30.71;98223.84;5030187;28;20053;-75
2022/05/13 08:51:02;;;;;;;9.35;5.28;;;;;;;32.33;30.68;98215.16;5031990;28;20017;-75
2022/05/13 08:53:35;;;;;;;9.75;5.55;;;;;;;32.72;30.44;98225.75;5031276;28;20025;-73
2022/05/13 08:56:06;;;;;;;17.08;6.18;;;;;;;34.47;27.98;98217.53;5032827;28;20047;-75
2022/05/13 08:58:37;;;;;;;8.80;6.07;;;;;;;33.69;28.72;98220.38;5040500;28;20116;-76
2022/05/13 09:01:11;;;;;;;9.70;5.65;;;;;;;34.22;28.51;98207.66;5035763;28;20095;-73
2022/05/13 09:03:53;;;;;;;10.80;6.17;;;;;;;33.56;29.49;98208.09;5032112;28;20108;-74
2022/05/13 09:06:42;;;;;;;7.70;5.93;;;;;;;34.26;27.80;98210.41;5032510;28;20363;-73
2022/05/13 09:09:10;;;;;;;11.18;5.85;;;;;;;34.17;28.00;98211.03;5013976;28;20078;-75
2022/05/13 09:11:41;;;;;;;9.23;6.13;;;;;;;33.93;28.15;98206.78;5035131;28;20030;-74
2022/05/13 09:14:09;;;;;;;10.82;6.18;;;;;;;34.55;27.24;98202.69;5030993;28;20033;-73
2022/05/13 09:16:41;;;;;;;10.38;6.05;;;;;;;35.29;26.35;98199.69;5032749;28;20022;-74
2022/05/13 09:19:14;;;;;;;7.15;5.72;;;;;;;35.65;26.20;98200.16;5030906;28;20052;-73
2022/05/13 09:21:44;;;;;;;9.40;5.63;;;;;;;35.60;26.25;98192.19;5027639;28;20025;-73
2022/05/13 09:24:10;;;;;;;7.88;5.30;;;;;;;35.49;25.80;98203.13;5047745;28;20029;-74
2022/05/13 09:26:38;;;;;;;5.93;4.47;;;;;;;34.45;26.43;98198.09;5032497;28;20037;-75
2022/05/13 09:29:09;;;;;;;7.03;5.22;;;;;;;34.93;26.89;98200.75;5031867;28;20029;-74
2022/05/13 09:31:47;;;;;;;10.57;5.32;;;;;;;33.90;27.82;98197.09;5033006;28;20127;-76
2022/05/13 09:34:39;;;;;;;9.95;5.47;;;;;;;32.50;29.71;98187.72;5031331;28;20029;-75
2022/05/13 09:37:18;;;;;;;6.45;4.93;;;;;;;34.97;26.77;98195.75;5060771;28;20064;-73
2022/05/13 09:39:46;;;;;;;7.95;4.85;;;;;;;36.05;25.58;98199.66;5028977;28;20112;-74
2022/05/13 09:42:17;;;;;;;6.70;4.97;;;;;;;36.09;25.36;98200.34;5032152;28;20033;-75
2022/05/13 09:44:43;;;;;;;7.05;5.10;;;;;;;34.37;26.75;98196.69;5045976;28;20051;-74
2022/05/13 09:47:13;;;;;;;7.35;4.70;;;;;;;34.05;27.48;98193.91;5032411;28;20037;-76
2022/05/13 09:49:42;;;;;;;6.50;4.38;;;;;;;34.55;26.89;98191.31;5032251;28;20103;-73
2022/05/13 09:52:16;;;;;;;6.60;4.63;;;;;;;33.78;27.83;98175.13;5031184;28;20029;-74
2022/05/13 09:54:47;;;;;;;6.32;4.82;;;;;;;34.96;26.02;98170.59;5028633;28;20059;-73
2022/05/13 09:57:27;;;;;;;7.20;3.88;;;;;;;34.05;27.13;98171.94;5029920;28;20384;-75
2022/05/13 09:59:56;;;;;;;7.50;4.43;;;;;;;32.40;30.09;98168.09;5028471;28;20056;-74
2022/05/13 10:02:31;;;;;;;6.38;4.30;;;;;;;31.42;31.41;98160.91;5043872;28;20070;-73
2022/05/13 10:05:17;;;;;;;5.53;4.50;;;;;;;32.56;29.97;98160.50;5029423;28;20079;-74
2022/05/13 10:08:05;;;;;;;8.73;4.22;;;;;;;32.58;29.45;98152.34;5043593;28;20043;-76
2022/05/13 10:16:06;;;;;;;7.30;4.78;;;;;;;32.27;29.65;98154.56;5029789;28;20037;-74
2022/05/13 10:18:41;;;;;;;7.93;5.13;;;;;;;31.48;30.95;98159.22;5028686;28;20083;-78
2022/05/13 10:21:18;;;;;;;6.90;3.90;;;;;;;33.01;29.51;98148.59;5027004;28;20034;-74
2022/05/13 10:23:57;;;;;;;7.35;5.05;;;;;;;33.93;28.31;98142.25;5028595;28;20031;-73
2022/05/13 10:26:29;;;;;;;5.90;4.55;;;;;;;34.90;26.87;98150.47;5028031;28;20030;-72
2022/05/13 10:28:57;;;;;;;7.28;4.47;;;;;;;33.40;28.54;98142.78;5029696;28;20474;-74
2022/05/13 10:31:27;;;;;;;7.22;4.40;;;;;;;34.22;27.92;98138.66;5030312;28;20390;-73
2022/05/13 10:34:03;;;;;;;5.13;4.00;;;;;;;35.17;26.55;98135.03;5021814;28;20052;-73
2022/05/13 10:36:51;;;;;;;6.97;4.28;;;;;;;34.07;28.17;98134.59;5029766;28;20022;-73
2022/05/13 10:39:59;;;;;;;5.72;4.50;;;;;;;31.76;31.66;98119.13;5030800;28;20125;-72
2022/05/13 10:42:32;;;;;;;6.10;4.80;;;;;;;30.69;33.08;98113.56;4986821;28;20038;-73
2022/05/13 10:45:02;;;;;;;6.53;4.68;;;;;;;30.51;33.33;98126.31;4969369;28;20046;-74
2022/05/13 10:47:37;;;;;;;5.75;4.35;;;;;;;30.37;33.89;98112.34;4993342;28;20054;-74
2022/05/13 10:50:09;;;;;;;7.10;4.72;;;;;;;30.09;34.22;98099.38;5011304;28;20483;-74
2022/05/13 10:52:50;;;;;;;6.13;5.20;;;;;;;29.23;35.85;98095.75;5011278;28;20033;-73
2022/05/13 10:56:00;;;;;;;6.35;4.80;;;;;;;28.83;36.71;98093.66;5019851;28;20033;-74
2022/05/13 10:58:49;;;;;;;7.93;4.47;;;;;;;28.34;38.15;98078.66;5019817;28;20045;-73
2022/05/13 11:01:33;;;;;;;10.85;3.92;;;;;;;28.06;36.71;98079.56;5025844;28;20025;-73
2022/05/13 11:04:10;;;;;;;9.30;4.22;;;;;;;27.50;38.65;98066.44;5011770;28;20064;-74
2022/05/13 11:06:40;;;;;;;7.90;5.10;;;;;;;27.34;39.54;98077.28;5026674;28;20034;-74
2022/05/13 11:09:42;;;;;;;5.97;4.47;;;;;;;27.53;38.95;98064.84;5053696;28;20033;-74
2022/05/13 11:12:23;;;;;;;5.97;4.35;;;;;;;27.64;38.18;98052.34;5030551;28;20038;-75
2022/05/13 11:14:54;;;;;;;7.32;4.50;;;;;;;27.87;38.72;98051.88;5030222;28;20415;-74
2022/05/13 11:17:48;;;;;;;8.98;5.65;;;;;;;28.10;38.75;98040.16;5030611;28;20034;-74
2022/05/13 11:20:19;;;;;;;7.53;4.40;;;;;;;28.33;38.04;98036.81;5012300;28;20044;-75
2022/05/13 11:23:08;;;;;;;13.43;4.35;;;;;;;28.49;37.79;98023.06;5012125;28;20109;-77
2022/05/13 11:25:57;;;;;;;5.13;4.40;;;;;;;28.08;39.05;98034.13;5016848;28;20565;-74
2022/05/13 11:29:05;;;;;;;5.95;4.40;;;;;;;27.97;39.31;98019.31;5026087;28;20037;-75
2022/05/13 11:31:36;;;;;;;6.60;5.05;;;;;;;27.68;39.59;98012.97;5009828;28;20128;-75
2022/05/13 11:34:14;;;;;;;7.53;4.60;;;;;;;27.46;40.43;98017.88;5028280;28;20021;-75
2022/05/13 11:36:58;;;;;;;9.98;4.70;;;;;;;27.60;40.03;98017.00;5023406;28;20402;-75
2022/05/13 11:39:49;;;;;;;6.85;5.07;;;;;;;27.60;39.96;98006.56;5028590;28;20029;-74
2022/05/13 11:42:33;;;;;;;6.50;5.15;;;;;;;27.53;39.45;98003.81;5042396;28;20039;-77
2022/05/13 11:45:14;;;;;;;7.20;5.15;;;;;;;27.43;40.32;98007.44;5024748;28;20049;-75
2022/05/13 11:47:56;;;;;;;7.22;5.55;;;;;;;28.01;40.07;98001.19;5024101;28;20037;-75
2022/05/13 11:50:23;;;;;;;6.70;5.10;;;;;;;27.61;39.81;97996.94;5027243;28;20501;-77
2022/05/13 11:52:50;;;;;;;9.68;5.15;;;;;;;28.10;39.25;97997.94;5037835;28;20034;-76
2022/05/13 11:55:39;;;;;;;8.15;4.93;;;;;;;28.23;38.38;97996.25;5026433;28;20121;-74
2022/05/13 11:58:06;;;;;;;7.30;5.18;;;;;;;28.31;38.88;97986.59;5027202;28;20033;-75
2022/05/13 12:00:35;;;;;;;7.30;5.05;;;;;;;28.48;38.29;97982.84;5043706;28;20025;-76
2022/05/13 12:03:09;;;;;;;6.78;4.45;;;;;;;28.56;37.69;97981.59;5029604;28;20099;-75